createdAt,value
2018-09-18T00:00:53.350Z,56.30
2018-09-18T00:03:21.899Z,56.00
2018-09-18T00:05:50.728Z,55.90
2018-09-18T00:08:19.098Z,56.10
2018-09-18T00:10:47.582Z,56.10
2018-09-18T00:13:16.014Z,56.20
2018-09-18T00:15:44.468Z,57.10
2018-09-18T00:18:12.920Z,56.90
2018-09-18T00:20:41.353Z,57.00
2018-09-18T00:23:09.752Z,56.80
2018-09-18T00:25:38.140Z,57.50
2018-09-18T00:28:06.869Z,56.80
2018-09-18T00:30:35.557Z,56.80
2018-09-18T00:33:03.941Z,57.00
2018-09-18T00:35:32.372Z,57.30
2018-09-18T00:38:00.765Z,57.30
2018-09-18T00:40:29.204Z,57.50
2018-09-18T00:42:57.565Z,57.60
2018-09-18T00:45:26.145Z,57.60
2018-09-18T00:47:54.572Z,57.50
2018-09-18T00:50:23.083Z,57.80
2018-09-18T00:52:51.604Z,57.90
2018-09-18T00:55:20.070Z,58.20
2018-09-18T00:57:48.524Z,58.30
2018-09-18T01:00:16.994Z,58.10
2018-09-18T01:02:45.455Z,58.30
2018-09-18T01:05:14.062Z,58.40
2018-09-18T01:07:42.471Z,58.70
2018-09-18T01:10:10.903Z,58.50
2018-09-18T01:12:39.333Z,58.80
2018-09-18T01:15:07.806Z,58.90
2018-09-18T01:17:36.299Z,59.20
2018-09-18T01:20:04.777Z,59.20
2018-09-18T01:22:33.195Z,59.10
2018-09-18T01:25:01.898Z,59.30
2018-09-18T01:27:30.294Z,59.40
2018-09-18T01:29:58.710Z,59.50
2018-09-18T01:32:27.156Z,60.10
2018-09-18T01:34:55.631Z,60.20
2018-09-18T01:37:24.088Z,60.30
2018-09-18T01:39:52.533Z,60.90
2018-09-18T01:42:20.989Z,60.20
2018-09-18T01:44:49.441Z,60.60
2018-09-18T01:47:17.872Z,60.50
2018-09-18T01:49:46.269Z,60.70
2018-09-18T01:52:14.701Z,60.60
2018-09-18T01:54:43.168Z,60.90
2018-09-18T01:57:11.638Z,61.10
2018-09-18T01:59:40.115Z,60.40
2018-09-18T02:02:08.616Z,61.40
2018-09-18T02:04:37.103Z,61.50
2018-09-18T02:07:05.569Z,62.20
2018-09-18T02:09:33.991Z,62.00
2018-09-18T02:12:02.440Z,62.20
2018-09-18T02:14:30.858Z,61.80
2018-09-18T02:16:59.312Z,61.70
2018-09-18T02:19:27.714Z,61.60
2018-09-18T02:21:56.208Z,62.20
2018-09-18T02:24:24.660Z,62.30
2018-09-18T02:26:53.136Z,62.30
2018-09-18T02:29:21.586Z,62.10
2018-09-18T02:31:50.087Z,62.20
2018-09-18T02:34:18.553Z,62.30
2018-09-18T02:36:46.986Z,62.20
2018-09-18T02:39:15.386Z,62.20
2018-09-18T02:41:44.113Z,62.20
2018-09-18T02:44:12.540Z,62.10
2018-09-18T02:46:40.992Z,62.20
2018-09-18T02:49:09.393Z,62.20
2018-09-18T02:51:37.768Z,62.10
2018-09-18T02:54:06.257Z,62.10
2018-09-18T02:56:34.660Z,62.10
2018-09-18T02:59:03.172Z,62.00
2018-09-18T03:01:31.641Z,62.10
2018-09-18T03:04:00.081Z,62.10
2018-09-18T03:06:28.523Z,62.20
2018-09-18T03:08:56.922Z,62.50
2018-09-18T03:11:26.005Z,62.90
2018-09-18T03:13:54.373Z,63.30
2018-09-18T03:16:22.892Z,63.60
2018-09-18T03:18:51.410Z,63.10
2018-09-18T03:21:19.909Z,63.40
2018-09-18T03:23:48.353Z,63.50
2018-09-18T03:26:16.760Z,64.00
2018-09-18T03:28:45.332Z,64.20
2018-09-18T03:31:13.748Z,64.40
2018-09-18T03:33:42.168Z,64.50
2018-09-18T03:36:10.600Z,64.70
2018-09-18T03:38:39.030Z,64.80
2018-09-18T03:41:07.444Z,64.70
2018-09-18T03:43:35.834Z,65.40
2018-09-18T03:46:04.304Z,65.90
2018-09-18T03:48:32.709Z,66.00
2018-09-18T03:51:01.157Z,66.10
2018-09-18T03:53:29.616Z,65.90
2018-09-18T03:55:58.021Z,66.30
2018-09-18T03:58:26.667Z,66.00
2018-09-18T04:00:55.274Z,66.50
2018-09-18T04:03:23.743Z,66.40
2018-09-18T04:05:52.395Z,66.70
2018-09-18T04:08:20.859Z,66.50
2018-09-18T04:10:49.288Z,66.80
2018-09-18T04:13:17.672Z,66.70
2018-09-18T04:15:46.123Z,67.00
2018-09-18T04:18:17.270Z,67.50
2018-09-18T04:20:45.712Z,67.90
2018-09-18T04:23:14.118Z,67.70
2018-09-18T04:25:42.637Z,67.50
2018-09-18T04:28:11.080Z,67.90
2018-09-18T04:30:39.552Z,68.40
2018-09-18T04:33:08.033Z,68.20
2018-09-18T04:35:36.389Z,68.00
2018-09-18T04:38:04.880Z,68.60
2018-09-18T04:40:33.293Z,68.60
2018-09-18T04:43:01.739Z,68.90
2018-09-18T04:45:30.199Z,68.90
2018-09-18T04:47:58.638Z,68.90
2018-09-18T04:50:27.116Z,69.50
2018-09-18T04:52:55.924Z,69.80
2018-09-18T04:55:24.542Z,69.60
2018-09-18T04:57:53.632Z,69.30
2018-09-18T05:00:22.177Z,70.40
2018-09-18T05:02:51.004Z,70.50
2018-09-18T05:05:19.811Z,70.80
2018-09-18T05:07:48.277Z,70.80
2018-09-18T05:10:16.716Z,70.90
2018-09-18T05:12:45.164Z,70.90
2018-09-18T05:15:13.645Z,70.40
2018-09-18T05:17:42.302Z,70.20
2018-09-18T05:20:10.673Z,70.30
2018-09-18T05:22:39.125Z,69.50
2018-09-18T05:25:07.891Z,69.60
2018-09-18T05:27:36.348Z,69.50
2018-09-18T05:30:05.147Z,69.50
2018-09-18T05:32:33.614Z,69.30
2018-09-18T05:35:01.993Z,70.10
2018-09-18T05:37:30.392Z,70.70
2018-09-18T05:39:58.922Z,70.80
2018-09-18T05:42:27.319Z,70.80
2018-09-18T05:44:55.877Z,70.90
2018-09-18T05:47:24.809Z,70.90
2018-09-18T05:49:53.637Z,70.90
2018-09-18T05:52:22.452Z,70.90
2018-09-18T05:54:51.544Z,71.00
2018-09-18T05:57:20.005Z,71.00
2018-09-18T05:59:48.496Z,71.10
2018-09-18T06:02:17.128Z,71.10
2018-09-18T06:04:46.179Z,71.10
2018-09-18T06:07:14.662Z,71.40
2018-09-18T06:09:43.090Z,71.00
2018-09-18T06:12:12.087Z,72.10
2018-09-18T06:14:40.531Z,71.30
2018-09-18T06:17:09.001Z,71.20
2018-09-18T06:19:38.136Z,70.80
2018-09-18T06:22:06.500Z,70.90
2018-09-18T06:24:34.916Z,70.70
2018-09-18T06:27:03.338Z,70.00
2018-09-18T06:29:31.776Z,70.20
2018-09-18T06:32:00.156Z,70.40
2018-09-18T06:34:28.576Z,70.70
2018-09-18T06:36:56.999Z,70.80
2018-09-18T06:39:25.467Z,70.90
2018-09-18T06:41:54.108Z,70.70
2018-09-18T06:44:24.436Z,70.70
2018-09-18T06:46:52.895Z,70.30
2018-09-18T06:49:21.424Z,70.20
2018-09-18T06:51:49.892Z,70.30
2018-09-18T06:54:18.328Z,70.20
2018-09-18T06:56:47.042Z,70.20
2018-09-18T06:59:15.574Z,70.10
2018-09-18T07:01:44.059Z,69.40
2018-09-18T07:04:12.514Z,69.00
2018-09-18T07:06:40.902Z,68.10
2018-09-18T07:09:09.666Z,68.50
2018-09-18T07:11:38.022Z,67.80
2018-09-18T07:14:06.522Z,66.40
2018-09-18T07:16:34.955Z,65.90
2018-09-18T07:19:03.373Z,64.80
2018-09-18T07:21:31.793Z,63.70
2018-09-18T07:24:00.329Z,63.70
2018-09-18T07:26:28.762Z,63.40
2018-09-18T07:28:57.254Z,63.30
2018-09-18T07:31:25.755Z,62.20
2018-09-18T07:33:54.366Z,61.40
2018-09-18T07:36:22.694Z,61.20
2018-09-18T07:38:51.351Z,61.00
2018-09-18T07:41:19.898Z,60.70
2018-09-18T07:43:48.357Z,60.70
2018-09-18T07:46:16.795Z,60.80
2018-09-18T07:48:45.193Z,60.20
2018-09-18T07:51:13.626Z,59.90
2018-09-18T07:53:42.088Z,58.30
2018-09-18T07:56:10.472Z,57.20
2018-09-18T07:58:38.917Z,57.00
2018-09-18T08:01:07.283Z,55.80
2018-09-18T08:03:35.772Z,56.00
2018-09-18T08:06:04.228Z,55.80
2018-09-18T08:08:32.619Z,55.60
2018-09-18T08:11:01.234Z,56.10
2018-09-18T08:13:29.585Z,54.70
2018-09-18T08:15:58.012Z,54.50
2018-09-18T08:18:26.391Z,54.10
2018-09-18T08:20:54.820Z,52.90
2018-09-18T08:23:23.540Z,51.80
2018-09-18T08:25:51.952Z,52.00
2018-09-18T08:28:20.406Z,48.10
2018-09-18T08:30:48.854Z,45.40
2018-09-18T08:33:17.295Z,46.90
2018-09-18T08:35:45.678Z,47.70
2018-09-18T08:38:15.144Z,48.00
2018-09-18T08:40:43.618Z,49.30
2018-09-18T08:43:12.045Z,50.10
2018-09-18T08:45:40.493Z,50.00
2018-09-18T08:48:09.002Z,50.20
2018-09-18T08:50:37.888Z,51.00
2018-09-18T08:53:06.348Z,50.80
2018-09-18T08:55:34.729Z,50.30
2018-09-18T08:58:03.360Z,50.10
2018-09-18T09:00:31.964Z,50.20
2018-09-18T09:03:00.567Z,50.00
2018-09-18T09:05:29.502Z,50.60
2018-09-18T09:07:57.965Z,50.60
2018-09-18T09:10:27.053Z,50.80
2018-09-18T09:12:55.561Z,51.00
2018-09-18T09:15:23.960Z,51.30
2018-09-18T09:17:52.360Z,50.90
2018-09-18T09:20:20.952Z,50.70
2018-09-18T09:22:49.403Z,50.80
2018-09-18T09:25:17.700Z,50.90
2018-09-18T09:27:48.222Z,50.70
2018-09-18T09:30:16.866Z,50.90
2018-09-18T09:32:45.293Z,51.20
2018-09-18T09:35:13.694Z,51.80
2018-09-18T09:37:42.333Z,51.20
2018-09-18T09:40:12.160Z,51.80
2018-09-18T09:42:40.646Z,51.80
2018-09-18T09:45:09.105Z,52.00
2018-09-18T09:47:37.469Z,51.70
2018-09-18T09:50:15.778Z,52.00
2018-09-18T09:52:46.345Z,52.40
2018-09-18T09:55:18.387Z,52.30
2018-09-18T09:57:52.710Z,51.80
2018-09-18T10:00:27.569Z,52.20
2018-09-18T10:02:57.222Z,52.40
2018-09-18T10:05:25.605Z,52.10
2018-09-18T10:07:54.113Z,52.10
2018-09-18T10:10:22.640Z,51.40
2018-09-18T10:12:51.125Z,51.60
2018-09-18T10:15:19.584Z,51.40
2018-09-18T10:17:47.961Z,50.90
2018-09-18T10:20:16.392Z,50.10
2018-09-18T10:22:44.810Z,50.70
2018-09-18T10:25:13.238Z,49.60
2018-09-18T10:27:41.640Z,49.60
2018-09-18T10:30:11.802Z,49.80
2018-09-18T10:32:40.239Z,50.20
2018-09-18T10:35:08.676Z,49.80
2018-09-18T10:37:37.154Z,49.80
2018-09-18T10:40:05.774Z,50.00
2018-09-18T10:42:34.255Z,50.10
2018-09-18T10:45:02.998Z,50.10
2018-09-18T10:47:31.391Z,50.20
2018-09-18T10:50:00.020Z,49.80
2018-09-18T10:52:28.444Z,50.00
2018-09-18T10:54:56.939Z,50.10
2018-09-18T10:57:25.412Z,50.20
2018-09-18T10:59:53.861Z,50.30
2018-09-18T11:02:22.460Z,50.50
2018-09-18T11:04:50.847Z,49.70
2018-09-18T11:07:19.534Z,50.50
2018-09-18T11:09:47.887Z,50.50
2018-09-18T11:12:16.249Z,49.80
2018-09-18T11:14:44.763Z,49.70
2018-09-18T11:17:13.104Z,49.90
2018-09-18T11:19:41.559Z,49.40
2018-09-18T11:22:11.007Z,49.60
2018-09-18T11:24:39.394Z,50.10
2018-09-18T11:27:07.905Z,50.60
2018-09-18T11:29:36.321Z,50.20
2018-09-18T11:32:04.747Z,49.70
2018-09-18T11:34:33.085Z,49.60
2018-09-18T11:37:01.526Z,49.50
2018-09-18T11:39:30.090Z,49.20
2018-09-18T11:41:58.621Z,48.60
2018-09-18T11:44:27.009Z,48.90
2018-09-18T11:46:55.481Z,49.30
2018-09-18T11:49:23.959Z,49.50
2018-09-18T11:51:52.456Z,49.90
2018-09-18T11:54:23.337Z,49.80
2018-09-18T11:56:52.492Z,49.70
2018-09-18T11:59:20.933Z,49.40
2018-09-18T12:01:49.423Z,49.70
2018-09-18T12:04:17.788Z,49.90
2018-09-18T12:06:46.181Z,49.20
2018-09-18T12:09:14.692Z,49.30
2018-09-18T12:11:43.064Z,49.80
2018-09-18T12:14:11.447Z,49.70
2018-09-18T12:16:39.821Z,49.80
2018-09-18T12:19:08.198Z,49.90
2018-09-18T12:21:36.592Z,49.70
2018-09-18T12:24:04.982Z,50.10
2018-09-18T12:26:33.352Z,49.70
2018-09-18T12:29:01.708Z,49.10
2018-09-18T12:31:30.127Z,49.70
2018-09-18T12:33:58.915Z,49.60
2018-09-18T12:36:27.382Z,49.20
2018-09-18T12:38:55.872Z,48.70
2018-09-18T12:41:24.466Z,48.50
2018-09-18T12:43:52.794Z,47.90
2018-09-18T12:46:21.228Z,48.90
2018-09-18T12:48:49.677Z,48.30
2018-09-18T12:51:18.098Z,48.40
2018-09-18T12:53:46.536Z,47.80
2018-09-18T12:56:14.963Z,47.90
2018-09-18T12:58:43.758Z,48.30
2018-09-18T13:01:12.121Z,48.10
2018-09-18T13:03:40.545Z,47.80
2018-09-18T13:06:09.005Z,47.60
2018-09-18T13:08:37.374Z,47.40
2018-09-18T13:11:05.848Z,47.20
2018-09-18T13:13:34.673Z,47.10
2018-09-18T13:16:03.120Z,46.80
2018-09-18T13:18:31.530Z,47.10
2018-09-18T13:20:59.954Z,46.90
2018-09-18T13:23:28.364Z,46.90
2018-09-18T13:25:56.792Z,46.50
2018-09-18T13:28:25.225Z,46.00
2018-09-18T13:30:53.638Z,45.90
2018-09-18T13:33:22.189Z,45.50
2018-09-18T13:35:50.799Z,45.40
2018-09-18T13:38:19.891Z,45.80
2018-09-18T13:40:48.437Z,46.20
2018-09-18T13:43:16.817Z,46.40
2018-09-18T13:45:45.274Z,46.30
2018-09-18T13:48:13.984Z,46.20
2018-09-18T13:50:42.574Z,45.80
2018-09-18T13:53:11.119Z,45.30
2018-09-18T13:55:39.538Z,45.20
2018-09-18T13:58:07.977Z,45.80
2018-09-18T14:00:36.421Z,45.60
2018-09-18T14:03:04.801Z,45.70
2018-09-18T14:05:33.295Z,45.40
2018-09-18T14:08:01.653Z,45.70
2018-09-18T14:10:31.050Z,45.80
2018-09-18T14:12:59.519Z,45.90
2018-09-18T14:15:27.858Z,45.70
2018-09-18T14:17:56.315Z,45.60
2018-09-18T14:20:24.910Z,45.80
2018-09-18T14:22:53.400Z,45.50
2018-09-18T14:25:21.967Z,45.60
2018-09-18T14:27:50.515Z,45.20
2018-09-18T14:30:19.032Z,45.70
2018-09-18T14:32:47.400Z,44.70
2018-09-18T14:35:15.779Z,45.20
2018-09-18T14:37:44.222Z,45.20
2018-09-18T14:40:12.540Z,45.10
2018-09-18T14:42:40.924Z,45.20
2018-09-18T14:45:09.371Z,45.60
2018-09-18T14:47:37.885Z,45.30
2018-09-18T14:50:06.404Z,45.70
2018-09-18T14:52:35.174Z,45.10
2018-09-18T14:55:04.047Z,45.10
2018-09-18T14:57:35.940Z,45.20
2018-09-18T15:00:05.752Z,44.70
2018-09-18T15:02:34.087Z,44.50
2018-09-18T15:05:02.606Z,44.70
2018-09-18T15:07:31.026Z,44.40
2018-09-18T15:09:59.791Z,44.70
2018-09-18T15:12:28.204Z,44.80
2018-09-18T15:14:56.827Z,44.80
2018-09-18T15:17:25.336Z,45.30
2018-09-18T15:19:53.820Z,45.10
2018-09-18T15:22:22.540Z,44.90
2018-09-18T15:24:51.314Z,44.80
2018-09-18T15:27:20.191Z,44.70
2018-09-18T15:29:48.964Z,45.20
2018-09-18T15:32:18.218Z,45.30
2018-09-18T15:34:46.856Z,45.40
2018-09-18T15:37:15.248Z,45.40
2018-09-18T15:39:43.693Z,45.60
2018-09-18T15:42:12.361Z,45.60
2018-09-18T15:44:40.913Z,45.60
2018-09-18T15:47:09.349Z,45.30
2018-09-18T15:49:38.053Z,45.00
2018-09-18T15:52:06.664Z,45.00
2018-09-18T15:54:35.455Z,44.60
2018-09-18T15:57:03.990Z,44.10
2018-09-18T15:59:32.449Z,44.40
2018-09-18T16:02:00.917Z,44.50
2018-09-18T16:04:29.417Z,44.60
2018-09-18T16:06:57.825Z,44.30
2018-09-18T16:09:26.393Z,44.20
2018-09-18T16:11:54.944Z,44.50
2018-09-18T16:14:23.467Z,44.70
2018-09-18T16:16:52.020Z,44.60
2018-09-18T16:19:20.521Z,44.80
2018-09-18T16:21:49.203Z,44.80
2018-09-18T16:24:18.660Z,44.90
2018-09-18T16:26:47.191Z,44.70
2018-09-18T16:29:15.679Z,45.00
2018-09-18T16:31:44.094Z,45.10
2018-09-18T16:34:12.603Z,45.00
2018-09-18T16:36:41.130Z,45.00
2018-09-18T16:39:09.537Z,45.00
2018-09-18T16:41:37.984Z,45.10
2018-09-18T16:44:06.872Z,45.20
2018-09-18T16:46:35.331Z,45.50
2018-09-18T16:49:04.428Z,45.60
2018-09-18T16:51:36.188Z,45.80
2018-09-18T16:54:10.435Z,46.10
2018-09-18T16:56:39.372Z,46.30
2018-09-18T16:59:07.768Z,46.30
2018-09-18T17:01:36.112Z,46.60
2018-09-18T17:04:04.559Z,46.90
2018-09-18T17:06:33.036Z,47.00
2018-09-18T17:09:01.463Z,47.30
2018-09-18T17:11:29.994Z,47.60
2018-09-18T17:13:58.407Z,47.70
2018-09-18T17:16:27.011Z,47.80
2018-09-18T17:18:55.506Z,48.00
2018-09-18T17:21:24.278Z,48.50
2018-09-18T17:23:52.728Z,48.60
2018-09-18T17:26:21.251Z,48.90
2018-09-18T17:29:14.363Z,49.50
2018-09-18T17:31:57.799Z,49.70
2018-09-18T17:34:26.570Z,50.00
2018-09-18T17:36:55.290Z,51.20
2018-09-18T17:39:23.796Z,52.00
2018-09-18T17:41:52.373Z,51.90
2018-09-18T17:44:21.110Z,51.90
2018-09-18T17:46:50.658Z,52.60
2018-09-18T17:49:19.767Z,53.20
2018-09-18T17:51:48.907Z,53.60
2018-09-18T17:55:21.162Z,54.10
2018-09-18T17:57:50.041Z,54.40
2018-09-18T18:00:18.929Z,54.80
2018-09-18T18:02:49.023Z,55.00
2018-09-18T18:05:18.181Z,55.10
2018-09-18T18:07:46.777Z,55.40
2018-09-18T18:10:15.225Z,55.60
2018-09-18T18:12:43.654Z,55.80
2018-09-18T18:15:12.107Z,56.00
2018-09-18T18:17:40.533Z,56.70
2018-09-18T18:20:09.672Z,56.80
2018-09-18T18:22:38.093Z,57.00
2018-09-18T18:25:06.578Z,57.00
2018-09-18T18:27:35.519Z,57.10
2018-09-18T18:30:04.046Z,57.40
2018-09-18T18:32:33.849Z,58.70
2018-09-18T18:35:02.633Z,59.20
2018-09-18T18:37:31.617Z,60.30
2018-09-18T18:40:00.100Z,60.20
2018-09-18T18:42:29.022Z,60.60
2018-09-18T18:44:57.727Z,61.40
2018-09-18T18:47:26.669Z,61.30
2018-09-18T18:49:55.036Z,61.70
2018-09-18T18:52:24.036Z,62.00
2018-09-18T18:54:53.038Z,62.20
2018-09-18T18:57:21.528Z,62.60
2018-09-18T18:59:49.925Z,62.80
2018-09-18T19:02:18.340Z,63.20
2018-09-18T19:04:46.757Z,63.40
2018-09-18T19:07:15.206Z,63.90
2018-09-18T19:09:43.836Z,63.90
2018-09-18T19:12:12.453Z,63.10
2018-09-18T19:14:40.934Z,63.40
2018-09-18T19:17:09.435Z,63.60
2018-09-18T19:19:37.848Z,64.30
2018-09-18T19:22:06.311Z,64.70
2018-09-18T19:24:34.993Z,64.60
2018-09-18T19:27:03.422Z,64.10
2018-09-18T19:29:32.762Z,64.30
2018-09-18T19:32:02.386Z,64.70
2018-09-18T19:34:30.948Z,64.70
2018-09-18T19:36:59.659Z,64.40
2018-09-18T19:39:28.595Z,64.80
2018-09-18T19:41:58.737Z,64.60
2018-09-18T19:44:28.106Z,64.60
2018-09-18T19:46:56.918Z,63.90
2018-09-18T19:49:25.580Z,64.50
2018-09-18T19:51:54.168Z,64.10
2018-09-18T19:54:22.588Z,64.60
2018-09-18T19:56:51.041Z,64.10
2018-09-18T19:59:19.743Z,64.10
2018-09-18T20:01:48.254Z,64.20
2018-09-18T20:04:16.699Z,63.70
2018-09-18T20:06:45.168Z,64.60
2018-09-18T20:09:13.648Z,65.10
2018-09-18T20:11:42.118Z,65.40
2018-09-18T20:14:10.547Z,65.40
2018-09-18T20:16:38.978Z,65.30
2018-09-18T20:19:07.424Z,65.20
2018-09-18T20:21:35.819Z,65.40
2018-09-18T20:24:04.235Z,65.90
2018-09-18T20:26:32.681Z,66.10
2018-09-18T20:29:01.247Z,65.90
2018-09-18T20:31:30.215Z,65.90
2018-09-18T20:33:58.856Z,66.40
2018-09-18T20:36:27.426Z,66.40
2018-09-18T20:38:55.900Z,66.50
2018-09-18T20:41:24.528Z,66.70
2018-09-18T20:43:53.377Z,66.90
2018-09-18T20:46:21.937Z,66.90
2018-09-18T20:48:50.409Z,66.50
2018-09-18T20:51:19.152Z,67.00
2018-09-18T20:53:47.575Z,67.20
2018-09-18T20:56:16.028Z,67.60
2018-09-18T20:58:44.436Z,67.60
2018-09-18T21:01:12.931Z,67.70
2018-09-18T21:03:41.754Z,67.60
2018-09-18T21:06:11.101Z,67.60
2018-09-18T21:08:39.515Z,67.50
2018-09-18T21:11:07.911Z,67.50
2018-09-18T21:13:36.384Z,67.60
2018-09-18T21:16:04.845Z,67.50
2018-09-18T21:18:33.264Z,67.50
2018-09-18T21:21:01.713Z,67.60
2018-09-18T21:23:30.251Z,67.60
2018-09-18T21:26:10.491Z,67.50
2018-09-18T21:28:38.973Z,67.50
2018-09-18T21:31:07.439Z,67.80
2018-09-18T21:33:35.920Z,67.40
2018-09-18T21:36:04.352Z,67.80
2018-09-18T21:38:32.833Z,68.60
2018-09-18T21:41:01.310Z,69.20
2018-09-18T21:43:30.736Z,69.30
2018-09-18T21:45:59.229Z,69.40
2018-09-18T21:48:27.636Z,69.30
2018-09-18T21:50:56.078Z,69.70
2018-09-18T21:53:24.860Z,69.70
2018-09-18T21:55:53.438Z,69.80
2018-09-18T21:58:21.915Z,70.00
2018-09-18T22:00:50.588Z,70.10
2018-09-18T22:03:18.942Z,70.40
2018-09-18T22:05:47.361Z,71.00
2018-09-18T22:08:15.764Z,71.10
2018-09-18T22:10:44.214Z,71.90
2018-09-18T22:13:12.688Z,71.50
2018-09-18T22:15:41.063Z,71.50
2018-09-18T22:18:09.469Z,71.60
2018-09-18T22:20:37.894Z,71.70
2018-09-18T22:23:06.321Z,72.00
2018-09-18T22:25:34.721Z,72.50
2018-09-18T22:28:03.160Z,72.40
2018-09-18T22:30:31.529Z,72.50
2018-09-18T22:33:00.004Z,72.90
2018-09-18T22:35:28.434Z,73.00
2018-09-18T22:37:56.885Z,73.30
2018-09-18T22:40:25.321Z,73.00
2018-09-18T22:42:53.893Z,73.00
2018-09-18T22:45:22.372Z,72.80
2018-09-18T22:47:51.166Z,72.50
2018-09-18T22:50:19.581Z,72.50
2018-09-18T22:52:47.974Z,72.10
2018-09-18T22:55:16.386Z,72.40
2018-09-18T22:57:44.848Z,72.30
2018-09-18T23:00:13.262Z,72.00
2018-09-18T23:02:41.712Z,72.80
2018-09-18T23:05:10.523Z,72.80
2018-09-18T23:07:38.952Z,73.00
2018-09-18T23:10:07.435Z,73.80
2018-09-18T23:12:37.028Z,73.10
2018-09-18T23:15:05.682Z,73.30
2018-09-18T23:17:34.109Z,73.40
2018-09-18T23:20:02.465Z,73.50
2018-09-18T23:22:30.831Z,73.10
2018-09-18T23:24:59.314Z,73.10
2018-09-18T23:27:27.659Z,73.10
2018-09-18T23:29:56.097Z,72.40
2018-09-18T23:32:24.580Z,72.00
2018-09-18T23:34:53.044Z,72.40
2018-09-18T23:37:21.582Z,73.00
2018-09-18T23:39:50.024Z,72.90
2018-09-18T23:42:18.586Z,72.60
2018-09-18T23:44:46.983Z,72.00
2018-09-18T23:47:15.326Z,71.30
2018-09-18T23:49:43.753Z,70.70
2018-09-18T23:52:12.287Z,70.50
2018-09-18T23:54:40.715Z,71.50
2018-09-18T23:57:09.182Z,71.90
2018-09-18T23:59:37.543Z,71.90
